EJM375 KCVG-KORL
Flight info
| Callsign | EJM375 |
|---|---|
| Flight time | 1h 45m |
| Altitude | 41000 |
| Route | SILKS6 TRFWA SPA QUIWE/N0458F400 Q93 FISHO/N0459F390 Q93 GURGE/N0458F400 Q93 GIPPL Q85 LPERD TTHOR3 |
| Aircraft | CL60/M-SADE3FGHIJ3J4J7P2RWXY/HB1D1 |
Departure
| Time | 2026-05-04 23:52 |
|---|---|
| Airport | Cincinnati Northern Kentucky International Airport (KCVG) |
Arrival
| Time | 2026-05-05 01:37 |
|---|---|
| Airport | Orlando Executive Airport (KORL) |
| Time | Latitude | Longitude | Altitude | Speed | Heading |
|---|---|---|---|---|---|
| 2026-05-04 23:37 | 39.04347 | -84.65675 | 870 ft | 0 kts | 270° |
| 2026-05-04 23:44 | 39.04356 | -84.65691 | 869 ft | 5 kts | 338° |
| 2026-05-04 23:45 | 39.04389 | -84.65700 | 868 ft | 5 kts | 346° |
| 2026-05-04 23:45 | 39.04391 | -84.65700 | 868 ft | 0 kts | 353° |
| 2026-05-04 23:45 | 39.04393 | -84.65700 | 868 ft | 0 kts | 353° |
| 2026-05-04 23:45 | 39.04408 | -84.65698 | 868 ft | 5 kts | 359° |
| 2026-05-04 23:46 | 39.04430 | -84.65700 | 868 ft | 1 kts | 359° |
| 2026-05-04 23:46 | 39.04453 | -84.65699 | 867 ft | 3 kts | 6° |
| 2026-05-04 23:46 | 39.04463 | -84.65657 | 869 ft | 6 kts | 90° |
| 2026-05-04 23:46 | 39.04464 | -84.65592 | 871 ft | 7 kts | 90° |
| 2026-05-04 23:47 | 39.04463 | -84.65530 | 874 ft | 3 kts | 90° |
| 2026-05-04 23:47 | 39.04463 | -84.65482 | 875 ft | 6 kts | 90° |
| 2026-05-04 23:47 | 39.04463 | -84.65422 | 876 ft | 5 kts | 90° |
| 2026-05-04 23:47 | 39.04463 | -84.65372 | 877 ft | 5 kts | 90° |
| 2026-05-04 23:48 | 39.04462 | -84.65347 | 878 ft | 5 kts | 90° |
| 2026-05-04 23:48 | 39.04462 | -84.65299 | 879 ft | 3 kts | 90° |
| 2026-05-04 23:48 | 39.04462 | -84.65276 | 880 ft | 1 kts | 91° |
| 2026-05-04 23:48 | 39.04462 | -84.65274 | 880 ft | 0 kts | 91° |
| 2026-05-04 23:50 | 39.04462 | -84.65252 | 881 ft | 10 kts | 91° |
| 2026-05-04 23:50 | 39.04462 | -84.65124 | 884 ft | 15 kts | 90° |
| 2026-05-04 23:50 | 39.04461 | -84.64996 | 887 ft | 13 kts | 91° |
| 2026-05-04 23:50 | 39.04460 | -84.64909 | 888 ft | 5 kts | 89° |
| 2026-05-04 23:51 | 39.04460 | -84.64833 | 888 ft | 11 kts | 91° |
| 2026-05-04 23:51 | 39.04442 | -84.64734 | 891 ft | 11 kts | 114° |
| 2026-05-04 23:51 | 39.04415 | -84.64673 | 894 ft | 1 kts | 179° |
| 2026-05-04 23:51 | 39.04338 | -84.64674 | 896 ft | 49 kts | 179° |
| 2026-05-04 23:52 | 39.03610 | -84.64675 | 909 ft | 150 kts | 181° |
| 2026-05-04 23:52 | 39.02539 | -84.64653 | 1835 ft | 156 kts | 181° |
| 2026-05-04 23:52 | 39.01581 | -84.64458 | 2791 ft | 138 kts | 181° |
| 2026-05-04 23:52 | 39.00570 | -84.64226 | 3354 ft | 170 kts | 179° |
| 2026-05-04 23:53 | 38.99240 | -84.63975 | 4100 ft | 213 kts | 179° |
| 2026-05-04 23:53 | 38.97732 | -84.63612 | 5196 ft | 238 kts | 174° |
| 2026-05-04 23:53 | 38.96112 | -84.63079 | 6490 ft | 251 kts | 173° |
| 2026-05-04 23:53 | 38.94395 | -84.62511 | 7679 ft | 267 kts | 174° |
| 2026-05-04 23:54 | 38.92571 | -84.61916 | 8966 ft | 280 kts | 171° |
| 2026-05-04 23:54 | 38.90704 | -84.61231 | 10245 ft | 292 kts | 171° |
| 2026-05-04 23:54 | 38.88728 | -84.60535 | 11504 ft | 303 kts | 172° |
| 2026-05-04 23:54 | 38.86655 | -84.59847 | 12472 ft | 326 kts | 172° |
| 2026-05-04 23:55 | 38.84347 | -84.59103 | 13120 ft | 353 kts | 172° |
| 2026-05-04 23:55 | 38.81885 | -84.58857 | 13867 ft | 362 kts | 192° |
| 2026-05-04 23:55 | 38.77033 | -84.60868 | 15789 ft | 379 kts | 205° |
| 2026-05-04 23:56 | 38.74567 | -84.62088 | 16913 ft | 384 kts | 205° |
| 2026-05-04 23:56 | 38.72074 | -84.63339 | 18067 ft | 386 kts | 206° |
| 2026-05-04 23:56 | 38.69590 | -84.64617 | 19058 ft | 392 kts | 205° |
| 2026-05-04 23:56 | 38.67018 | -84.65845 | 20065 ft | 396 kts | 205° |
| 2026-05-04 23:57 | 38.64462 | -84.67034 | 21101 ft | 398 kts | 204° |
| 2026-05-04 23:57 | 38.61834 | -84.68259 | 21970 ft | 404 kts | 204° |
| 2026-05-04 23:57 | 38.59173 | -84.69500 | 22809 ft | 409 kts | 204° |
| 2026-05-04 23:57 | 38.56497 | -84.70744 | 23540 ft | 416 kts | 204° |
| 2026-05-04 23:58 | 38.53762 | -84.72025 | 24301 ft | 421 kts | 204° |
| 2026-05-04 23:58 | 38.50994 | -84.73313 | 25237 ft | 422 kts | 204° |
| 2026-05-04 23:58 | 38.48262 | -84.74576 | 26041 ft | 425 kts | 204° |
| 2026-05-04 23:58 | 38.45344 | -84.75446 | 26549 ft | 441 kts | 189° |
| 2026-05-04 23:59 | 38.42223 | -84.75737 | 27046 ft | 449 kts | 188° |
| 2026-05-04 23:59 | 38.39099 | -84.75981 | 27524 ft | 456 kts | 188° |
| 2026-05-04 23:59 | 38.35890 | -84.76234 | 28022 ft | 461 kts | 188° |
| 2026-05-04 23:59 | 38.32682 | -84.76499 | 28490 ft | 465 kts | 188° |
| 2026-05-05 00:00 | 38.29432 | -84.76765 | 28930 ft | 469 kts | 188° |
| 2026-05-05 00:00 | 38.28310 | -84.76853 | 29094 ft | 470 kts | 188° |
| 2026-05-05 00:00 | 38.22855 | -84.77305 | 29778 ft | 475 kts | 189° |
| 2026-05-05 00:00 | 38.19526 | -84.77588 | 30094 ft | 479 kts | 189° |
| 2026-05-05 00:01 | 38.16191 | -84.77878 | 30350 ft | 482 kts | 188° |
| 2026-05-05 00:01 | 38.12820 | -84.78164 | 30671 ft | 483 kts | 189° |
| 2026-05-05 00:01 | 38.09458 | -84.78458 | 31048 ft | 483 kts | 188° |
| 2026-05-05 00:01 | 38.06094 | -84.78591 | 31364 ft | 488 kts | 182° |
| 2026-05-05 00:02 | 38.02702 | -84.77979 | 31660 ft | 495 kts | 172° |
| 2026-05-05 00:02 | 37.99373 | -84.76761 | 31990 ft | 500 kts | 164° |
| 2026-05-05 00:02 | 37.96183 | -84.74952 | 32207 ft | 507 kts | 155° |
| 2026-05-05 00:02 | 37.93234 | -84.72564 | 32401 ft | 513 kts | 146° |
| 2026-05-05 00:03 | 37.90483 | -84.69686 | 32645 ft | 515 kts | 142° |
| 2026-05-05 00:03 | 37.87748 | -84.66691 | 32860 ft | 516 kts | 142° |
| 2026-05-05 00:03 | 37.85057 | -84.63740 | 33088 ft | 516 kts | 142° |
| 2026-05-05 00:03 | 37.82330 | -84.60773 | 33294 ft | 516 kts | 142° |
| 2026-05-05 00:04 | 37.79623 | -84.57851 | 33467 ft | 517 kts | 142° |
| 2026-05-05 00:04 | 37.76854 | -84.54884 | 33667 ft | 517 kts | 143° |
| 2026-05-05 00:04 | 37.74112 | -84.51971 | 33891 ft | 516 kts | 143° |
| 2026-05-05 00:04 | 37.71393 | -84.49101 | 34166 ft | 514 kts | 143° |
| 2026-05-05 00:05 | 37.68625 | -84.46203 | 34459 ft | 513 kts | 143° |
| 2026-05-05 00:05 | 37.65869 | -84.43339 | 34729 ft | 511 kts | 144° |
| 2026-05-05 00:05 | 37.63118 | -84.40526 | 34911 ft | 511 kts | 144° |
| 2026-05-05 00:05 | 37.60339 | -84.37730 | 35100 ft | 511 kts | 144° |
| 2026-05-05 00:06 | 37.57592 | -84.34972 | 35279 ft | 512 kts | 145° |
| 2026-05-05 00:06 | 37.54798 | -84.32174 | 35470 ft | 511 kts | 145° |
| 2026-05-05 00:06 | 37.52031 | -84.29408 | 35642 ft | 512 kts | 145° |
| 2026-05-05 00:06 | 37.49251 | -84.26635 | 35793 ft | 513 kts | 145° |
| 2026-05-05 00:07 | 37.46434 | -84.23830 | 35953 ft | 513 kts | 145° |
| 2026-05-05 00:07 | 37.43639 | -84.21052 | 36141 ft | 513 kts | 145° |
| 2026-05-05 00:07 | 37.40829 | -84.18263 | 36303 ft | 514 kts | 145° |
| 2026-05-05 00:07 | 37.38045 | -84.15503 | 36472 ft | 514 kts | 145° |
| 2026-05-05 00:08 | 37.35245 | -84.12732 | 36716 ft | 513 kts | 145° |
| 2026-05-05 00:08 | 37.32442 | -84.09962 | 36955 ft | 513 kts | 145° |
| 2026-05-05 00:08 | 37.29631 | -84.07188 | 37189 ft | 513 kts | 145° |
| 2026-05-05 00:08 | 37.26830 | -84.04426 | 37451 ft | 513 kts | 145° |
| 2026-05-05 00:09 | 37.24039 | -84.01678 | 37695 ft | 513 kts | 145° |
| 2026-05-05 00:09 | 37.21247 | -83.98933 | 37945 ft | 513 kts | 145° |
| 2026-05-05 00:09 | 37.18422 | -83.96156 | 38155 ft | 512 kts | 145° |
| 2026-05-05 00:09 | 37.15623 | -83.93411 | 38323 ft | 513 kts | 145° |
| 2026-05-05 00:10 | 37.12832 | -83.90675 | 38494 ft | 514 kts | 145° |
| 2026-05-05 00:10 | 37.10009 | -83.87913 | 38648 ft | 515 kts | 145° |
| 2026-05-05 00:10 | 37.07198 | -83.85163 | 38822 ft | 515 kts | 145° |
| 2026-05-05 00:10 | 37.04366 | -83.82397 | 39026 ft | 515 kts | 145° |
| 2026-05-05 00:11 | 37.01545 | -83.79643 | 39211 ft | 515 kts | 145° |
| 2026-05-05 00:11 | 36.98723 | -83.76892 | 39377 ft | 515 kts | 145° |
| 2026-05-05 00:11 | 36.95934 | -83.74176 | 39543 ft | 515 kts | 145° |
| 2026-05-05 00:11 | 36.93105 | -83.71424 | 39691 ft | 516 kts | 145° |
| 2026-05-05 00:12 | 36.90278 | -83.68677 | 39850 ft | 516 kts | 145° |
| 2026-05-05 00:12 | 36.87448 | -83.65929 | 39973 ft | 516 kts | 145° |
| 2026-05-05 00:12 | 36.84618 | -83.63184 | 40099 ft | 516 kts | 145° |
| 2026-05-05 00:12 | 36.81787 | -83.60440 | 40211 ft | 517 kts | 145° |
| 2026-05-05 00:13 | 36.78949 | -83.57694 | 40319 ft | 518 kts | 145° |
| 2026-05-05 00:13 | 36.76093 | -83.54931 | 40421 ft | 519 kts | 145° |
| 2026-05-05 00:13 | 36.73233 | -83.52168 | 40529 ft | 519 kts | 145° |
| 2026-05-05 00:13 | 36.70412 | -83.49445 | 40645 ft | 519 kts | 145° |
| 2026-05-05 00:14 | 36.67549 | -83.46684 | 40758 ft | 519 kts | 145° |
| 2026-05-05 00:14 | 36.64695 | -83.43934 | 40874 ft | 519 kts | 145° |
| 2026-05-05 00:14 | 36.61837 | -83.41183 | 40961 ft | 520 kts | 145° |
| 2026-05-05 00:15 | 36.56132 | -83.35702 | 40962 ft | 522 kts | 145° |
| 2026-05-05 00:15 | 36.50406 | -83.30209 | 40967 ft | 521 kts | 146° |
| 2026-05-05 00:16 | 36.44670 | -83.24718 | 40974 ft | 521 kts | 146° |
| 2026-05-05 00:16 | 36.38924 | -83.19228 | 40965 ft | 521 kts | 146° |
| 2026-05-05 00:17 | 36.33178 | -83.13748 | 40969 ft | 521 kts | 146° |
| 2026-05-05 00:17 | 36.27443 | -83.08289 | 40979 ft | 521 kts | 146° |
| 2026-05-05 00:18 | 36.21720 | -83.02853 | 40975 ft | 520 kts | 146° |
| 2026-05-05 00:18 | 36.16000 | -82.97430 | 40984 ft | 520 kts | 146° |
| 2026-05-05 00:19 | 36.10242 | -82.91980 | 40993 ft | 520 kts | 146° |
| 2026-05-05 00:19 | 36.04517 | -82.86573 | 40997 ft | 521 kts | 146° |
| 2026-05-05 00:20 | 35.98741 | -82.81127 | 41020 ft | 521 kts | 146° |
| 2026-05-05 00:20 | 35.92998 | -82.75723 | 41016 ft | 521 kts | 146° |
| 2026-05-05 00:21 | 35.87255 | -82.70328 | 41024 ft | 522 kts | 146° |
| 2026-05-05 00:21 | 35.81450 | -82.64887 | 41037 ft | 522 kts | 146° |
| 2026-05-05 00:22 | 35.75673 | -82.59481 | 41036 ft | 522 kts | 146° |
| 2026-05-05 00:22 | 35.69929 | -82.54117 | 41035 ft | 522 kts | 146° |
| 2026-05-05 00:23 | 35.64127 | -82.48708 | 41066 ft | 523 kts | 146° |
| 2026-05-05 00:23 | 35.58353 | -82.43335 | 41068 ft | 522 kts | 146° |
| 2026-05-05 00:24 | 35.52587 | -82.37980 | 41069 ft | 522 kts | 146° |
| 2026-05-05 00:24 | 35.46774 | -82.32591 | 41062 ft | 523 kts | 147° |
| 2026-05-05 00:25 | 35.40993 | -82.27241 | 41042 ft | 522 kts | 147° |
| 2026-05-05 00:25 | 35.35217 | -82.21907 | 41026 ft | 523 kts | 147° |
| 2026-05-05 00:26 | 35.29423 | -82.16565 | 41033 ft | 522 kts | 147° |
| 2026-05-05 00:26 | 35.23572 | -82.11182 | 41008 ft | 522 kts | 147° |
| 2026-05-05 00:27 | 35.17760 | -82.05843 | 40999 ft | 522 kts | 147° |
| 2026-05-05 00:27 | 35.11960 | -82.00525 | 41023 ft | 522 kts | 147° |
| 2026-05-05 00:28 | 35.06163 | -81.95300 | 41012 ft | 519 kts | 150° |
| 2026-05-05 00:28 | 34.99815 | -81.91326 | 41010 ft | 510 kts | 165° |
| 2026-05-05 00:29 | 34.93083 | -81.88606 | 41021 ft | 509 kts | 167° |
| 2026-05-05 00:29 | 34.86354 | -81.85933 | 41034 ft | 509 kts | 167° |
| 2026-05-05 00:30 | 34.79637 | -81.83270 | 41018 ft | 508 kts | 167° |
| 2026-05-05 00:30 | 34.72918 | -81.80612 | 41012 ft | 509 kts | 167° |
| 2026-05-05 00:31 | 34.66191 | -81.77956 | 41012 ft | 509 kts | 167° |
| 2026-05-05 00:31 | 34.59474 | -81.75309 | 41023 ft | 509 kts | 167° |
| 2026-05-05 00:32 | 34.52736 | -81.72659 | 41030 ft | 509 kts | 167° |
| 2026-05-05 00:32 | 34.45982 | -81.70007 | 41025 ft | 509 kts | 167° |
| 2026-05-05 00:33 | 34.39287 | -81.67383 | 41029 ft | 509 kts | 167° |
| 2026-05-05 00:33 | 34.32520 | -81.64735 | 41034 ft | 509 kts | 167° |
| 2026-05-05 00:34 | 34.25789 | -81.62106 | 41038 ft | 509 kts | 167° |
| 2026-05-05 00:34 | 34.19057 | -81.59481 | 41034 ft | 510 kts | 167° |
| 2026-05-05 00:35 | 34.12320 | -81.56858 | 41038 ft | 510 kts | 167° |
| 2026-05-05 00:35 | 34.05581 | -81.54240 | 41032 ft | 510 kts | 167° |
| 2026-05-05 00:35 | 34.02177 | -81.52919 | 40849 ft | 514 kts | 167° |
| 2026-05-05 00:36 | 33.98751 | -81.51590 | 40614 ft | 512 kts | 167° |
| 2026-05-05 00:36 | 33.95367 | -81.50425 | 40441 ft | 504 kts | 173° |
| 2026-05-05 00:36 | 33.91922 | -81.49767 | 40285 ft | 497 kts | 179° |
| 2026-05-05 00:36 | 33.88508 | -81.49309 | 40109 ft | 495 kts | 179° |
| 2026-05-05 00:37 | 33.85123 | -81.48852 | 40016 ft | 493 kts | 179° |
| 2026-05-05 00:37 | 33.78309 | -81.47931 | 40039 ft | 491 kts | 179° |
| 2026-05-05 00:38 | 33.71528 | -81.47018 | 40049 ft | 494 kts | 179° |
| 2026-05-05 00:38 | 33.64693 | -81.46100 | 40046 ft | 495 kts | 179° |
| 2026-05-05 00:39 | 33.57865 | -81.45184 | 40059 ft | 495 kts | 179° |
| 2026-05-05 00:39 | 33.50996 | -81.44263 | 40045 ft | 495 kts | 179° |
| 2026-05-05 00:40 | 33.44178 | -81.43351 | 40057 ft | 494 kts | 179° |
| 2026-05-05 00:40 | 33.37335 | -81.42438 | 40051 ft | 495 kts | 179° |
| 2026-05-05 00:41 | 33.30515 | -81.41528 | 40070 ft | 495 kts | 179° |
| 2026-05-05 00:41 | 33.23699 | -81.40151 | 40065 ft | 501 kts | 173° |
| 2026-05-05 00:42 | 33.16873 | -81.38403 | 40061 ft | 501 kts | 173° |
| 2026-05-05 00:42 | 33.10049 | -81.36663 | 40063 ft | 500 kts | 174° |
| 2026-05-05 00:43 | 33.03238 | -81.34933 | 40060 ft | 502 kts | 174° |
| 2026-05-05 00:43 | 32.96428 | -81.33205 | 40068 ft | 500 kts | 174° |
| 2026-05-05 00:44 | 32.89632 | -81.31486 | 40070 ft | 500 kts | 174° |
| 2026-05-05 00:44 | 32.82804 | -81.29763 | 40074 ft | 500 kts | 174° |
| 2026-05-05 00:45 | 32.76032 | -81.28057 | 40070 ft | 501 kts | 175° |
| 2026-05-05 00:45 | 32.69187 | -81.26335 | 40067 ft | 500 kts | 175° |
| 2026-05-05 00:46 | 32.62413 | -81.24635 | 40080 ft | 499 kts | 175° |
| 2026-05-05 00:46 | 32.55611 | -81.22930 | 40073 ft | 500 kts | 175° |
| 2026-05-05 00:47 | 32.48814 | -81.21435 | 40066 ft | 494 kts | 182° |
| 2026-05-05 00:47 | 32.42053 | -81.21456 | 40073 ft | 485 kts | 190° |
| 2026-05-05 00:48 | 32.35299 | -81.21791 | 40085 ft | 484 kts | 190° |
| 2026-05-05 00:48 | 32.28594 | -81.22122 | 40089 ft | 484 kts | 190° |
| 2026-05-05 00:49 | 32.21854 | -81.22456 | 40082 ft | 485 kts | 191° |
| 2026-05-05 00:49 | 32.15103 | -81.22789 | 40084 ft | 485 kts | 191° |
| 2026-05-05 00:50 | 32.08387 | -81.23121 | 40083 ft | 485 kts | 191° |
| 2026-05-05 00:50 | 32.01633 | -81.23455 | 40081 ft | 485 kts | 191° |
| 2026-05-05 00:51 | 31.94872 | -81.23554 | 40089 ft | 492 kts | 184° |
| 2026-05-05 00:51 | 31.88024 | -81.22704 | 40087 ft | 494 kts | 182° |
| 2026-05-05 00:52 | 31.81174 | -81.21838 | 40090 ft | 494 kts | 182° |
| 2026-05-05 00:52 | 31.74326 | -81.20976 | 40108 ft | 494 kts | 182° |
| 2026-05-05 00:53 | 31.67510 | -81.20121 | 40085 ft | 494 kts | 182° |
| 2026-05-05 00:53 | 31.60662 | -81.19263 | 40084 ft | 493 kts | 182° |
| 2026-05-05 00:54 | 31.53859 | -81.18415 | 40091 ft | 494 kts | 182° |
| 2026-05-05 00:54 | 31.47006 | -81.17564 | 40084 ft | 493 kts | 182° |
| 2026-05-05 00:55 | 31.40289 | -81.17596 | 40091 ft | 477 kts | 195° |
| 2026-05-05 00:55 | 31.33965 | -81.19309 | 40087 ft | 461 kts | 208° |
| 2026-05-05 00:56 | 31.28230 | -81.22384 | 40088 ft | 452 kts | 215° |
| 2026-05-05 00:56 | 31.22550 | -81.25636 | 40087 ft | 457 kts | 211° |
| 2026-05-05 00:57 | 31.16372 | -81.27756 | 40092 ft | 473 kts | 198° |
| 2026-05-05 00:57 | 31.09715 | -81.28250 | 40087 ft | 487 kts | 188° |
| 2026-05-05 00:58 | 31.02928 | -81.28219 | 40087 ft | 487 kts | 188° |
| 2026-05-05 00:58 | 30.96126 | -81.28194 | 40089 ft | 487 kts | 188° |
| 2026-05-05 00:59 | 30.89363 | -81.28172 | 40084 ft | 486 kts | 188° |
| 2026-05-05 00:59 | 30.82693 | -81.28142 | 39627 ft | 472 kts | 188° |
| 2026-05-05 00:59 | 30.79412 | -81.28131 | 38786 ft | 471 kts | 188° |
| 2026-05-05 01:00 | 30.76147 | -81.28124 | 37686 ft | 477 kts | 188° |
| 2026-05-05 01:00 | 30.72819 | -81.28119 | 36548 ft | 482 kts | 188° |
| 2026-05-05 01:00 | 30.69450 | -81.28111 | 35361 ft | 486 kts | 188° |
| 2026-05-05 01:00 | 30.66063 | -81.28104 | 34052 ft | 491 kts | 188° |
| 2026-05-05 01:01 | 30.62651 | -81.28097 | 32775 ft | 493 kts | 188° |
| 2026-05-05 01:01 | 30.59233 | -81.28044 | 31897 ft | 487 kts | 186° |
| 2026-05-05 01:01 | 30.55897 | -81.27875 | 31073 ft | 480 kts | 185° |
| 2026-05-05 01:01 | 30.52606 | -81.27697 | 30346 ft | 471 kts | 185° |
| 2026-05-05 01:02 | 30.49340 | -81.27524 | 29598 ft | 463 kts | 185° |
| 2026-05-05 01:02 | 30.46140 | -81.27356 | 28856 ft | 456 kts | 185° |
| 2026-05-05 01:02 | 30.42995 | -81.27193 | 27999 ft | 453 kts | 185° |
| 2026-05-05 01:02 | 30.39896 | -81.27032 | 27219 ft | 447 kts | 184° |
| 2026-05-05 01:03 | 30.36793 | -81.26872 | 26391 ft | 443 kts | 184° |
| 2026-05-05 01:03 | 30.33734 | -81.26715 | 25636 ft | 438 kts | 184° |
| 2026-05-05 01:03 | 30.30717 | -81.26560 | 24874 ft | 433 kts | 183° |
| 2026-05-05 01:03 | 30.27737 | -81.26407 | 24133 ft | 427 kts | 183° |
| 2026-05-05 01:04 | 30.24800 | -81.26234 | 23579 ft | 417 kts | 182° |
| 2026-05-05 01:04 | 30.19033 | -81.25880 | 22434 ft | 417 kts | 182° |
| 2026-05-05 01:04 | 30.16137 | -81.25704 | 21861 ft | 415 kts | 181° |
| 2026-05-05 01:05 | 30.13246 | -81.25526 | 21299 ft | 411 kts | 181° |
| 2026-05-05 01:05 | 30.10412 | -81.25352 | 20716 ft | 407 kts | 181° |
| 2026-05-05 01:05 | 30.07594 | -81.25178 | 20159 ft | 403 kts | 181° |
| 2026-05-05 01:05 | 30.04772 | -81.25006 | 19615 ft | 400 kts | 181° |
| 2026-05-05 01:06 | 30.02017 | -81.24837 | 19072 ft | 397 kts | 181° |
| 2026-05-05 01:06 | 29.99268 | -81.24669 | 18522 ft | 392 kts | 181° |
| 2026-05-05 01:06 | 29.96549 | -81.24503 | 17996 ft | 388 kts | 180° |
| 2026-05-05 01:06 | 29.93873 | -81.24340 | 17423 ft | 391 kts | 180° |
| 2026-05-05 01:07 | 29.91176 | -81.24192 | 16856 ft | 381 kts | 181° |
| 2026-05-05 01:07 | 29.88552 | -81.24095 | 16341 ft | 379 kts | 181° |
| 2026-05-05 01:07 | 29.85903 | -81.24001 | 15827 ft | 376 kts | 181° |
| 2026-05-05 01:07 | 29.83310 | -81.23909 | 15326 ft | 374 kts | 181° |
| 2026-05-05 01:08 | 29.80723 | -81.23816 | 14795 ft | 372 kts | 180° |
| 2026-05-05 01:08 | 29.78150 | -81.23724 | 14290 ft | 369 kts | 180° |
| 2026-05-05 01:08 | 29.75595 | -81.23632 | 13777 ft | 367 kts | 179° |
| 2026-05-05 01:08 | 29.73038 | -81.23541 | 13276 ft | 364 kts | 180° |
| 2026-05-05 01:09 | 29.70495 | -81.23449 | 12761 ft | 362 kts | 180° |
| 2026-05-05 01:09 | 29.68004 | -81.23360 | 12284 ft | 359 kts | 179° |
| 2026-05-05 01:09 | 29.65522 | -81.23258 | 11787 ft | 356 kts | 179° |
| 2026-05-05 01:09 | 29.63052 | -81.23122 | 11408 ft | 354 kts | 178° |
| 2026-05-05 01:10 | 29.60599 | -81.22985 | 11234 ft | 352 kts | 179° |
| 2026-05-05 01:10 | 29.58137 | -81.22849 | 11115 ft | 349 kts | 179° |
| 2026-05-05 01:10 | 29.55765 | -81.22716 | 10815 ft | 333 kts | 178° |
| 2026-05-05 01:10 | 29.53509 | -81.22590 | 10581 ft | 318 kts | 179° |
| 2026-05-05 01:11 | 29.51322 | -81.22467 | 10338 ft | 305 kts | 179° |
| 2026-05-05 01:11 | 29.49252 | -81.22352 | 10099 ft | 295 kts | 179° |
| 2026-05-05 01:11 | 29.47213 | -81.22239 | 9873 ft | 293 kts | 179° |
| 2026-05-05 01:11 | 29.45164 | -81.22127 | 9645 ft | 293 kts | 179° |
| 2026-05-05 01:12 | 29.43137 | -81.22015 | 9423 ft | 292 kts | 179° |
| 2026-05-05 01:12 | 29.41114 | -81.21905 | 9202 ft | 291 kts | 179° |
| 2026-05-05 01:12 | 29.39075 | -81.21793 | 8973 ft | 290 kts | 179° |
| 2026-05-05 01:12 | 29.37081 | -81.21684 | 8753 ft | 289 kts | 179° |
| 2026-05-05 01:13 | 29.35068 | -81.21594 | 8538 ft | 288 kts | 179° |
| 2026-05-05 01:13 | 29.33057 | -81.21512 | 8318 ft | 287 kts | 179° |
| 2026-05-05 01:13 | 29.31079 | -81.21431 | 8099 ft | 285 kts | 179° |
| 2026-05-05 01:13 | 29.29078 | -81.21349 | 7877 ft | 284 kts | 179° |
| 2026-05-05 01:14 | 29.27108 | -81.21268 | 7656 ft | 283 kts | 179° |
| 2026-05-05 01:14 | 29.25144 | -81.21186 | 7448 ft | 282 kts | 179° |
| 2026-05-05 01:14 | 29.23175 | -81.21072 | 7232 ft | 281 kts | 178° |
| 2026-05-05 01:14 | 29.21230 | -81.20939 | 7016 ft | 279 kts | 178° |
| 2026-05-05 01:15 | 29.19297 | -81.20808 | 6808 ft | 278 kts | 178° |
| 2026-05-05 01:15 | 29.17355 | -81.20676 | 6593 ft | 277 kts | 178° |
| 2026-05-05 01:15 | 29.15430 | -81.20547 | 6380 ft | 275 kts | 177° |
| 2026-05-05 01:15 | 29.13518 | -81.20418 | 6169 ft | 274 kts | 177° |
| 2026-05-05 01:16 | 29.11612 | -81.20321 | 5959 ft | 273 kts | 179° |
| 2026-05-05 01:16 | 29.09714 | -81.20300 | 5751 ft | 272 kts | 180° |
| 2026-05-05 01:16 | 29.07849 | -81.20280 | 5551 ft | 262 kts | 179° |
| 2026-05-05 01:16 | 29.06060 | -81.20263 | 5362 ft | 250 kts | 179° |
| 2026-05-05 01:17 | 29.04347 | -81.20245 | 5174 ft | 240 kts | 179° |
| 2026-05-05 01:17 | 29.02682 | -81.20258 | 5002 ft | 235 kts | 184° |
| 2026-05-05 01:17 | 29.01100 | -81.20649 | 4974 ft | 235 kts | 194° |
| 2026-05-05 01:17 | 28.99524 | -81.21139 | 4984 ft | 229 kts | 194° |
| 2026-05-05 01:18 | 28.97996 | -81.21606 | 4983 ft | 228 kts | 194° |
| 2026-05-05 01:18 | 28.96460 | -81.22070 | 4979 ft | 227 kts | 194° |
| 2026-05-05 01:18 | 28.94931 | -81.22535 | 4978 ft | 227 kts | 194° |
| 2026-05-05 01:18 | 28.93406 | -81.22994 | 4977 ft | 227 kts | 194° |
| 2026-05-05 01:19 | 28.91911 | -81.23581 | 4979 ft | 228 kts | 210° |
| 2026-05-05 01:19 | 28.90667 | -81.24735 | 4777 ft | 234 kts | 222° |
| 2026-05-05 01:19 | 28.89498 | -81.26015 | 4542 ft | 231 kts | 223° |
| 2026-05-05 01:19 | 28.88341 | -81.27306 | 4353 ft | 228 kts | 223° |
| 2026-05-05 01:20 | 28.87222 | -81.28567 | 4160 ft | 230 kts | 223° |
| 2026-05-05 01:20 | 28.86078 | -81.29861 | 3987 ft | 228 kts | 223° |
| 2026-05-05 01:20 | 28.84956 | -81.31144 | 3970 ft | 230 kts | 223° |
| 2026-05-05 01:20 | 28.83828 | -81.32439 | 3971 ft | 230 kts | 223° |
| 2026-05-05 01:21 | 28.82704 | -81.33720 | 3969 ft | 229 kts | 223° |
| 2026-05-05 01:21 | 28.81571 | -81.35008 | 3972 ft | 229 kts | 223° |
| 2026-05-05 01:21 | 28.80448 | -81.36289 | 3971 ft | 229 kts | 223° |
| 2026-05-05 01:21 | 28.79309 | -81.37588 | 3962 ft | 230 kts | 223° |
| 2026-05-05 01:22 | 28.78171 | -81.38886 | 3756 ft | 234 kts | 223° |
| 2026-05-05 01:22 | 28.77021 | -81.40208 | 3500 ft | 232 kts | 223° |
| 2026-05-05 01:22 | 28.75912 | -81.41499 | 3260 ft | 230 kts | 223° |
| 2026-05-05 01:22 | 28.74788 | -81.42818 | 3016 ft | 229 kts | 223° |
| 2026-05-05 01:23 | 28.73693 | -81.44112 | 2769 ft | 230 kts | 223° |
| 2026-05-05 01:23 | 28.72579 | -81.45434 | 2512 ft | 231 kts | 223° |
| 2026-05-05 01:23 | 28.71475 | -81.46766 | 2261 ft | 230 kts | 223° |
| 2026-05-05 01:23 | 28.70388 | -81.48090 | 2023 ft | 230 kts | 223° |
| 2026-05-05 01:24 | 28.69301 | -81.49419 | 1969 ft | 227 kts | 223° |
| 2026-05-05 01:24 | 28.68249 | -81.50719 | 1976 ft | 221 kts | 223° |
| 2026-05-05 01:24 | 28.67199 | -81.52021 | 1979 ft | 221 kts | 223° |
| 2026-05-05 01:24 | 28.66173 | -81.53288 | 1970 ft | 220 kts | 223° |
| 2026-05-05 01:25 | 28.65118 | -81.54583 | 1970 ft | 220 kts | 223° |
| 2026-05-05 01:25 | 28.64084 | -81.55856 | 1960 ft | 220 kts | 223° |
| 2026-05-05 01:25 | 28.63031 | -81.57153 | 1959 ft | 221 kts | 223° |
| 2026-05-05 01:25 | 28.61997 | -81.58427 | 1960 ft | 220 kts | 223° |
| 2026-05-05 01:26 | 28.60952 | -81.59719 | 1967 ft | 220 kts | 224° |
| 2026-05-05 01:26 | 28.59913 | -81.61001 | 1959 ft | 221 kts | 223° |
| 2026-05-05 01:26 | 28.58874 | -81.62289 | 1963 ft | 220 kts | 224° |
| 2026-05-05 01:26 | 28.57846 | -81.63563 | 1968 ft | 220 kts | 223° |
| 2026-05-05 01:27 | 28.56799 | -81.64861 | 1964 ft | 220 kts | 224° |
| 2026-05-05 01:27 | 28.55755 | -81.66120 | 1955 ft | 219 kts | 216° |
| 2026-05-05 01:27 | 28.54436 | -81.66839 | 1957 ft | 208 kts | 186° |
| 2026-05-05 01:27 | 28.52997 | -81.67130 | 1955 ft | 206 kts | 183° |
| 2026-05-05 01:28 | 28.51593 | -81.67386 | 1964 ft | 206 kts | 183° |
| 2026-05-05 01:28 | 28.50151 | -81.67642 | 1968 ft | 207 kts | 182° |
| 2026-05-05 01:28 | 28.48760 | -81.67618 | 1967 ft | 197 kts | 159° |
| 2026-05-05 01:28 | 28.47450 | -81.67100 | 1959 ft | 196 kts | 153° |
| 2026-05-05 01:29 | 28.46243 | -81.66439 | 1957 ft | 190 kts | 135° |
| 2026-05-05 01:29 | 28.45608 | -81.65181 | 1967 ft | 186 kts | 99° |
| 2026-05-05 01:29 | 28.45479 | -81.63730 | 1968 ft | 186 kts | 94° |
| 2026-05-05 01:29 | 28.45414 | -81.62263 | 1969 ft | 186 kts | 93° |
| 2026-05-05 01:30 | 28.45352 | -81.60823 | 1985 ft | 174 kts | 93° |
| 2026-05-05 01:30 | 28.45292 | -81.59477 | 1994 ft | 169 kts | 93° |
| 2026-05-05 01:30 | 28.45233 | -81.58144 | 1969 ft | 168 kts | 93° |
| 2026-05-05 01:30 | 28.45239 | -81.56819 | 1970 ft | 167 kts | 85° |
| 2026-05-05 01:31 | 28.45481 | -81.55540 | 1968 ft | 168 kts | 74° |
| 2026-05-05 01:31 | 28.45964 | -81.54306 | 1966 ft | 170 kts | 64° |
| 2026-05-05 01:31 | 28.46585 | -81.53154 | 1965 ft | 172 kts | 61° |
| 2026-05-05 01:31 | 28.47248 | -81.52015 | 1970 ft | 171 kts | 61° |
| 2026-05-05 01:32 | 28.47863 | -81.50860 | 1968 ft | 170 kts | 64° |
| 2026-05-05 01:32 | 28.48372 | -81.49730 | 1993 ft | 149 kts | 68° |
| 2026-05-05 01:32 | 28.48769 | -81.48691 | 2003 ft | 140 kts | 71° |
| 2026-05-05 01:32 | 28.49110 | -81.47703 | 1948 ft | 122 kts | 73° |
| 2026-05-05 01:33 | 28.49399 | -81.46849 | 2032 ft | 116 kts | 73° |
| 2026-05-05 01:33 | 28.49689 | -81.46001 | 2001 ft | 114 kts | 73° |
| 2026-05-05 01:33 | 28.49985 | -81.45171 | 1975 ft | 112 kts | 71° |
| 2026-05-05 01:33 | 28.50288 | -81.44360 | 1971 ft | 111 kts | 70° |
| 2026-05-05 01:34 | 28.50606 | -81.43536 | 1853 ft | 112 kts | 70° |
| 2026-05-05 01:34 | 28.50921 | -81.42731 | 1726 ft | 110 kts | 70° |
| 2026-05-05 01:34 | 28.51230 | -81.41943 | 1589 ft | 110 kts | 70° |
| 2026-05-05 01:34 | 28.51538 | -81.41143 | 1441 ft | 110 kts | 70° |
| 2026-05-05 01:35 | 28.51848 | -81.40330 | 1298 ft | 111 kts | 70° |
| 2026-05-05 01:35 | 28.52154 | -81.39523 | 1158 ft | 112 kts | 70° |
| 2026-05-05 01:35 | 28.52462 | -81.38707 | 1004 ft | 114 kts | 69° |
| 2026-05-05 01:35 | 28.52782 | -81.37884 | 859 ft | 114 kts | 69° |
| 2026-05-05 01:36 | 28.53101 | -81.37050 | 713 ft | 114 kts | 69° |
| 2026-05-05 01:36 | 28.53418 | -81.36214 | 569 ft | 115 kts | 68° |
| 2026-05-05 01:36 | 28.53737 | -81.35381 | 417 ft | 116 kts | 69° |
| 2026-05-05 01:36 | 28.54052 | -81.34537 | 259 ft | 116 kts | 69° |
| 2026-05-05 01:37 | 28.54373 | -81.33691 | 131 ft | 113 kts | 68° |
| 2026-05-05 01:37 | 28.54642 | -81.32983 | 112 ft | 75 kts | 67° |
| 2026-05-05 01:37 | 28.54737 | -81.32734 | 115 ft | 2 kts | 65° |
| 2026-05-05 01:37 | 28.54765 | -81.32729 | 114 ft | 12 kts | 306° |
| 2026-05-05 01:38 | 28.54802 | -81.32746 | 113 ft | 10 kts | 41° |
| 2026-05-05 01:38 | 28.54866 | -81.32712 | 112 ft | 10 kts | 338° |
| 2026-05-05 01:38 | 28.54876 | -81.32763 | 112 ft | 3 kts | 245° |
| 2026-05-05 01:38 | 28.54856 | -81.32812 | 112 ft | 9 kts | 245° |
| 2026-05-05 01:39 | 28.54821 | -81.32907 | 112 ft | 15 kts | 246° |
| 2026-05-05 01:39 | 28.54775 | -81.33025 | 112 ft | 14 kts | 246° |
| 2026-05-05 01:39 | 28.54732 | -81.33141 | 112 ft | 10 kts | 252° |
| 2026-05-05 01:39 | 28.54717 | -81.33252 | 111 ft | 17 kts | 265° |
| 2026-05-05 01:40 | 28.54704 | -81.33391 | 110 ft | 17 kts | 265° |
| 2026-05-05 01:40 | 28.54691 | -81.33529 | 109 ft | 13 kts | 263° |
| 2026-05-05 01:40 | 28.54710 | -81.33598 | 109 ft | 10 kts | 226° |
| 2026-05-05 01:40 | 28.54720 | -81.33651 | 109 ft | 12 kts | 311° |
| 2026-05-05 01:41 | 28.54766 | -81.33711 | 109 ft | 10 kts | 311° |